createdAt,value
2022-11-08T00:01:18.675Z,84.04
2022-11-08T00:03:48.444Z,83.60
2022-11-08T00:06:30.672Z,83.50
2022-11-08T00:09:12.887Z,83.91
2022-11-08T00:11:57.682Z,84.03
2022-11-08T00:14:27.495Z,83.82
2022-11-08T00:16:57.265Z,83.50
2022-11-08T00:19:27.127Z,83.53
2022-11-08T00:21:56.852Z,83.37
2022-11-08T00:24:26.584Z,83.12
2022-11-08T00:26:59.023Z,82.83
2022-11-08T00:29:28.870Z,83.17
2022-11-08T00:31:58.651Z,83.89
2022-11-08T00:34:28.470Z,84.13
2022-11-08T00:36:58.328Z,83.98
2022-11-08T00:39:28.261Z,84.73
2022-11-08T00:42:01.068Z,83.91
2022-11-08T00:44:31.106Z,84.26
2022-11-08T00:47:00.955Z,83.79
2022-11-08T00:49:30.937Z,83.43
2022-11-08T00:52:00.687Z,83.19
2022-11-08T00:54:30.495Z,82.92
2022-11-08T00:57:02.916Z,83.32
2022-11-08T00:59:32.732Z,84.31
2022-11-08T01:02:02.670Z,84.80
2022-11-08T01:04:32.581Z,85.67
2022-11-08T01:07:02.358Z,85.89
2022-11-08T01:09:32.187Z,86.34
2022-11-08T01:12:04.542Z,86.58
2022-11-08T01:14:34.398Z,87.04
2022-11-08T01:17:04.121Z,87.22
2022-11-08T01:19:33.879Z,87.76
2022-11-08T01:22:03.647Z,88.09
2022-11-08T01:24:33.437Z,88.32
2022-11-08T01:27:05.833Z,88.56
2022-11-08T01:29:36.331Z,88.64
2022-11-08T01:32:06.128Z,87.91
2022-11-08T01:34:36.173Z,88.91
2022-11-08T01:37:05.956Z,88.48
2022-11-08T01:39:35.918Z,89.18
2022-11-08T01:42:08.639Z,89.42
2022-11-08T01:44:59.934Z,89.59
2022-11-08T01:47:29.710Z,90.42
2022-11-08T01:50:02.423Z,90.65
2022-11-08T01:52:36.369Z,90.48
2022-11-08T01:55:12.573Z,90.51
2022-11-08T01:57:50.064Z,90.45
2022-11-08T02:00:20.487Z,91.34
2022-11-08T02:02:57.160Z,91.29
2022-11-08T02:05:30.045Z,91.17
2022-11-08T02:08:04.934Z,90.85
2022-11-08T02:10:37.878Z,91.58
2022-11-08T02:13:14.959Z,91.61
2022-11-08T02:15:45.206Z,92.24
2022-11-08T02:18:17.426Z,91.61
2022-11-08T02:21:03.775Z,91.00
2022-11-08T02:23:51.653Z,91.46
2022-11-08T02:26:24.950Z,91.85
2022-11-08T02:28:54.773Z,91.39
2022-11-08T02:31:24.533Z,91.44
2022-11-08T02:33:54.311Z,92.10
2022-11-08T02:36:26.988Z,92.69
2022-11-08T02:39:00.576Z,92.98
2022-11-08T02:41:30.346Z,93.29
2022-11-08T02:44:00.216Z,93.06
2022-11-08T02:46:29.960Z,92.45
2022-11-08T02:48:59.750Z,92.67
2022-11-08T02:51:29.528Z,92.82
2022-11-08T02:54:01.889Z,92.90
2022-11-08T02:56:31.638Z,93.59
2022-11-08T02:59:01.402Z,94.34
2022-11-08T03:01:31.291Z,94.45
2022-11-08T03:04:01.154Z,94.60
2022-11-08T03:06:30.944Z,94.90
2022-11-08T03:09:03.353Z,94.60
2022-11-08T03:11:33.130Z,94.84
2022-11-08T03:14:02.971Z,94.60
2022-11-08T03:16:33.096Z,93.81
2022-11-08T03:19:02.879Z,94.51
2022-11-08T03:21:32.694Z,94.80
2022-11-08T03:24:05.075Z,95.56
2022-11-08T03:26:34.931Z,95.14
2022-11-08T03:29:04.679Z,95.03
2022-11-08T03:31:34.545Z,95.41
2022-11-08T03:34:04.331Z,94.64
2022-11-08T03:36:34.070Z,95.44
2022-11-08T03:39:06.710Z,95.64
2022-11-08T03:41:36.451Z,95.31
2022-11-08T03:44:06.295Z,95.97
2022-11-08T03:46:36.088Z,95.46
2022-11-08T03:49:05.918Z,96.11
2022-11-08T03:51:35.708Z,96.28
2022-11-08T03:54:08.176Z,95.67
2022-11-08T03:56:37.994Z,95.75
2022-11-08T03:59:07.792Z,95.32
2022-11-08T04:01:37.759Z,95.30
2022-11-08T04:04:08.413Z,94.84
2022-11-08T04:06:39.470Z,94.05
2022-11-08T04:09:11.820Z,93.55
2022-11-08T04:11:54.064Z,93.37
2022-11-08T04:14:36.325Z,93.71
2022-11-08T04:17:06.103Z,93.59
2022-11-08T04:19:48.342Z,93.05
2022-11-08T04:22:18.268Z,93.03
2022-11-08T04:24:50.752Z,93.45
2022-11-08T04:27:20.551Z,92.88
2022-11-08T04:29:50.301Z,92.98
2022-11-08T04:32:20.038Z,93.14
2022-11-08T04:34:49.769Z,94.09
2022-11-08T04:37:19.515Z,93.91
2022-11-08T04:39:51.988Z,93.58
2022-11-08T04:42:22.040Z,93.64
2022-11-08T04:44:51.819Z,93.06
2022-11-08T04:47:21.602Z,92.43
2022-11-08T04:49:51.405Z,91.31
2022-11-08T04:52:21.129Z,91.53
2022-11-08T04:54:53.469Z,91.00
2022-11-08T04:57:23.233Z,91.55
2022-11-08T04:59:53.013Z,91.88
2022-11-08T05:02:22.976Z,91.54
2022-11-08T05:04:52.926Z,91.51
2022-11-08T05:07:23.119Z,90.72
2022-11-08T05:09:59.868Z,90.77
2022-11-08T05:12:31.922Z,90.55
2022-11-08T05:15:01.700Z,90.93
2022-11-08T05:17:31.601Z,90.38
2022-11-08T05:20:13.819Z,90.26
2022-11-08T05:22:56.023Z,90.53
2022-11-08T05:25:28.385Z,89.44
2022-11-08T05:27:58.115Z,88.42
2022-11-08T05:30:27.952Z,88.46
2022-11-08T05:32:57.692Z,88.48
2022-11-08T05:35:27.425Z,88.37
2022-11-08T05:37:57.177Z,87.96
2022-11-08T05:40:33.399Z,87.43
2022-11-08T05:43:03.426Z,87.61
2022-11-08T05:45:33.192Z,87.98
2022-11-08T05:48:03.884Z,88.25
2022-11-08T05:50:34.071Z,87.86
2022-11-08T05:53:08.415Z,88.06
2022-11-08T05:55:40.784Z,87.77
2022-11-08T05:58:10.560Z,87.68
2022-11-08T06:00:40.316Z,88.60
2022-11-08T06:03:10.504Z,88.31
2022-11-08T06:05:40.458Z,87.48
2022-11-08T06:08:10.251Z,86.83
2022-11-08T06:10:43.747Z,87.21
2022-11-08T06:13:13.615Z,86.02
2022-11-08T06:15:43.601Z,86.13
2022-11-08T06:18:13.463Z,86.30
2022-11-08T06:20:44.357Z,85.88
2022-11-08T06:23:14.157Z,86.09
2022-11-08T06:25:49.495Z,86.40
2022-11-08T06:28:20.383Z,86.83
2022-11-08T06:30:51.366Z,86.82
2022-11-08T06:33:23.143Z,87.08
2022-11-08T06:35:52.990Z,87.88
2022-11-08T06:38:22.989Z,87.35
2022-11-08T06:40:55.407Z,87.37
2022-11-08T06:43:26.512Z,87.62
2022-11-08T06:45:57.870Z,87.95
2022-11-08T06:48:32.411Z,87.96
2022-11-08T06:51:09.416Z,87.82
2022-11-08T06:53:40.213Z,88.37
2022-11-08T06:56:14.449Z,88.82
2022-11-08T06:58:47.949Z,88.82
2022-11-08T07:01:18.948Z,88.89
2022-11-08T07:03:49.832Z,89.36
2022-11-08T07:06:19.709Z,90.14
2022-11-08T07:08:51.024Z,90.39
2022-11-08T07:11:24.563Z,90.20
2022-11-08T07:13:54.380Z,89.66
2022-11-08T07:16:24.274Z,88.92
2022-11-08T07:18:56.472Z,88.69
2022-11-08T07:21:29.937Z,88.60
2022-11-08T07:23:59.768Z,87.83
2022-11-08T07:26:33.236Z,87.82
2022-11-08T07:29:03.098Z,87.63
2022-11-08T07:31:32.985Z,87.75
2022-11-08T07:34:05.965Z,88.04
2022-11-08T07:36:36.857Z,88.13
2022-11-08T07:39:07.674Z,87.81
2022-11-08T07:41:41.153Z,87.63
2022-11-08T07:44:12.164Z,88.44
2022-11-08T07:46:41.996Z,88.57
2022-11-08T07:49:11.784Z,88.49
2022-11-08T07:51:48.574Z,88.57
2022-11-08T07:54:19.427Z,88.81
2022-11-08T07:57:06.581Z,89.17
2022-11-08T07:59:59.875Z,88.06
2022-11-08T08:02:32.244Z,87.34
2022-11-08T08:05:36.391Z,87.79
2022-11-08T08:08:09.399Z,87.33
2022-11-08T08:11:01.958Z,86.89
2022-11-08T08:13:36.398Z,86.89
2022-11-08T08:16:26.721Z,86.73
2022-11-08T08:19:19.197Z,85.12
2022-11-08T08:22:09.893Z,84.75
2022-11-08T08:24:43.910Z,84.04
2022-11-08T08:27:14.729Z,83.64
2022-11-08T08:29:58.870Z,83.45
2022-11-08T08:32:32.092Z,82.81
2022-11-08T08:35:05.742Z,83.32
2022-11-08T08:37:35.993Z,83.26
2022-11-08T08:40:10.879Z,83.13
2022-11-08T08:42:45.014Z,82.98
2022-11-08T08:45:24.333Z,82.43
2022-11-08T08:48:17.139Z,82.37
2022-11-08T08:51:09.268Z,82.52
2022-11-08T08:53:45.212Z,82.24
2022-11-08T08:56:29.384Z,82.33
2022-11-08T09:02:04.016Z,82.19
2022-11-08T09:04:35.900Z,82.14
2022-11-08T09:07:07.995Z,82.04
2022-11-08T09:09:44.850Z,81.08
2022-11-08T09:12:15.711Z,80.32
2022-11-08T09:14:45.490Z,79.95
2022-11-08T09:17:17.923Z,79.48
2022-11-08T09:19:53.052Z,79.27
2022-11-08T09:22:27.886Z,79.12
2022-11-08T09:25:01.051Z,78.59
2022-11-08T09:27:34.925Z,78.61
2022-11-08T09:30:04.944Z,78.47
2022-11-08T09:32:59.683Z,77.65
2022-11-08T09:35:27.329Z,77.75
2022-11-08T09:37:57.920Z,77.45
2022-11-08T09:40:34.142Z,76.89
2022-11-08T09:43:23.900Z,76.47
2022-11-08T09:45:56.129Z,77.37
2022-11-08T09:48:32.531Z,76.77
2022-11-08T09:51:09.086Z,76.39
2022-11-08T09:53:50.394Z,76.10
2022-11-08T09:56:27.916Z,75.58
2022-11-08T09:59:02.344Z,75.63
2022-11-08T10:01:34.516Z,75.32
2022-11-08T10:04:13.036Z,74.05
2022-11-08T10:07:01.028Z,74.70
2022-11-08T10:09:47.007Z,73.49
2022-11-08T10:12:22.480Z,73.43
2022-11-08T10:15:06.657Z,71.83
2022-11-08T10:18:00.329Z,72.25
2022-11-08T10:20:41.836Z,72.81
2022-11-08T10:23:23.697Z,71.05
2022-11-08T10:25:57.869Z,70.14
2022-11-08T10:28:34.263Z,70.54
2022-11-08T10:31:05.166Z,71.75
2022-11-08T10:33:40.538Z,71.57
2022-11-08T10:36:16.155Z,70.57
2022-11-08T10:38:53.076Z,70.12
2022-11-08T10:41:29.496Z,69.82
2022-11-08T10:44:04.930Z,69.28
2022-11-08T10:46:42.311Z,68.82
2022-11-08T10:49:19.573Z,68.90
2022-11-08T10:51:54.427Z,69.18
2022-11-08T10:54:46.060Z,67.83
2022-11-08T10:57:20.409Z,68.57
2022-11-08T10:59:50.206Z,68.21
2022-11-08T11:02:31.549Z,68.09
2022-11-08T11:05:23.770Z,68.83
2022-11-08T11:08:16.131Z,68.85
2022-11-08T11:10:48.322Z,69.09
2022-11-08T11:13:23.616Z,68.86
2022-11-08T11:15:55.909Z,68.95
2022-11-08T11:18:32.786Z,68.77
2022-11-08T11:21:12.179Z,68.79
2022-11-08T11:23:48.173Z,68.97
2022-11-08T11:26:32.040Z,68.29
2022-11-08T11:29:17.137Z,68.35
2022-11-08T11:31:49.575Z,69.09
2022-11-08T11:34:46.923Z,68.36
2022-11-08T11:37:30.619Z,67.83
2022-11-08T11:40:15.841Z,69.13
2022-11-08T11:42:55.474Z,68.74
2022-11-08T11:45:31.600Z,68.59
2022-11-08T11:48:05.130Z,68.34
2022-11-08T11:50:37.958Z,68.27
2022-11-08T11:53:10.485Z,68.12
2022-11-08T11:55:53.518Z,68.04
2022-11-08T11:58:37.172Z,66.27
2022-11-08T12:01:17.960Z,66.56
2022-11-08T12:04:19.893Z,67.04
2022-11-08T12:07:04.697Z,67.15
2022-11-08T12:09:48.254Z,66.60
2022-11-08T12:12:34.694Z,66.97
2022-11-08T12:15:13.546Z,66.54
2022-11-08T12:18:42.199Z,65.52
2022-11-08T12:21:16.255Z,65.72
2022-11-08T12:24:09.977Z,65.46
2022-11-08T12:26:47.622Z,65.42
2022-11-08T12:29:32.263Z,65.24
2022-11-08T12:32:21.752Z,63.57
2022-11-08T12:35:05.982Z,63.27
2022-11-08T12:37:50.446Z,64.41
2022-11-08T12:40:27.664Z,64.76
2022-11-08T12:43:16.009Z,64.38
2022-11-08T12:45:59.926Z,64.00
2022-11-08T12:48:51.851Z,63.69
2022-11-08T12:51:28.490Z,63.55
2022-11-08T12:54:18.892Z,64.01
2022-11-08T12:56:53.769Z,63.62
2022-11-08T12:59:26.744Z,63.74
2022-11-08T13:02:01.378Z,62.99
2022-11-08T13:04:41.478Z,63.67
2022-11-08T13:07:22.471Z,63.62
2022-11-08T13:09:59.242Z,63.91
2022-11-08T13:12:43.301Z,64.16
2022-11-08T13:15:20.476Z,63.36
2022-11-08T13:18:38.778Z,63.86
2022-11-08T13:21:38.352Z,63.55
2022-11-08T13:24:45.656Z,63.26
2022-11-08T13:27:35.854Z,64.63
2022-11-08T13:30:28.459Z,64.00
2022-11-08T13:33:07.591Z,65.02
2022-11-08T13:35:51.044Z,64.72
2022-11-08T13:38:33.075Z,64.04
2022-11-08T13:41:17.711Z,63.94
2022-11-08T13:43:50.149Z,64.33
2022-11-08T13:46:51.611Z,64.47
2022-11-08T13:49:24.526Z,64.32
2022-11-08T13:52:31.903Z,64.55
2022-11-08T13:55:04.458Z,64.48
2022-11-08T13:57:59.657Z,64.60
2022-11-08T14:00:46.825Z,64.30
2022-11-08T14:03:47.723Z,63.91
2022-11-08T14:06:26.638Z,64.11
2022-11-08T14:09:06.019Z,64.70
2022-11-08T14:11:48.664Z,64.27
2022-11-08T14:14:46.428Z,64.72
2022-11-08T14:17:45.984Z,65.21
2022-11-08T14:20:35.071Z,64.49
2022-11-08T14:23:18.103Z,64.81
2022-11-08T14:25:50.970Z,65.08
2022-11-08T14:28:29.173Z,65.10
2022-11-08T14:31:01.920Z,65.05
2022-11-08T14:33:33.196Z,65.32
2022-11-08T14:36:05.535Z,65.74
2022-11-08T14:38:39.070Z,65.77
2022-11-08T14:41:10.221Z,65.54
2022-11-08T14:43:46.194Z,65.68
2022-11-08T14:46:23.274Z,65.46
2022-11-08T14:48:56.756Z,66.27
2022-11-08T14:51:29.093Z,66.59
2022-11-08T14:53:59.290Z,66.99
2022-11-08T14:56:31.813Z,67.85
2022-11-08T14:59:08.499Z,67.20
2022-11-08T15:01:39.602Z,67.34
2022-11-08T15:04:16.149Z,67.07
2022-11-08T15:06:49.837Z,67.46
2022-11-08T15:09:24.153Z,67.72
2022-11-08T15:11:58.770Z,67.85
2022-11-08T15:14:36.435Z,67.90
2022-11-08T15:17:07.741Z,67.71
2022-11-08T15:19:42.654Z,67.42
2022-11-08T15:22:28.758Z,65.34
2022-11-08T15:25:05.845Z,66.89
2022-11-08T15:27:38.923Z,67.30
2022-11-08T15:30:18.159Z,67.08
2022-11-08T15:32:49.984Z,67.40
2022-11-08T15:35:26.314Z,67.27
2022-11-08T15:38:02.955Z,67.35
2022-11-08T15:40:36.476Z,67.36
2022-11-08T15:43:06.737Z,67.20
2022-11-08T15:45:40.428Z,66.88
2022-11-08T15:48:22.413Z,66.82
2022-11-08T15:50:53.450Z,67.08
2022-11-08T15:53:24.509Z,67.63
2022-11-08T15:55:57.679Z,67.35
2022-11-08T15:58:30.697Z,66.92
2022-11-08T16:01:06.066Z,67.24
2022-11-08T16:03:36.936Z,67.25
2022-11-08T16:06:08.346Z,67.26
2022-11-08T16:08:40.230Z,67.14
2022-11-08T16:11:16.715Z,66.73
2022-11-08T16:13:49.050Z,67.14
2022-11-08T16:16:24.781Z,66.84
2022-11-08T16:18:55.586Z,67.13
2022-11-08T16:21:26.742Z,67.29
2022-11-08T16:23:57.682Z,67.74
2022-11-08T16:26:29.811Z,67.73
2022-11-08T16:29:01.249Z,67.62
2022-11-08T16:31:39.650Z,67.69
2022-11-08T16:34:12.863Z,67.86
2022-11-08T16:36:46.368Z,67.29
2022-11-08T16:39:19.405Z,67.28
2022-11-08T16:41:50.490Z,67.60
2022-11-08T16:44:20.972Z,67.62
2022-11-08T16:46:55.448Z,67.34
2022-11-08T16:49:27.840Z,67.83
2022-11-08T16:51:58.861Z,67.77
2022-11-08T16:54:31.374Z,68.24
2022-11-08T16:57:28.359Z,68.86
2022-11-08T16:59:52.086Z,69.33
2022-11-08T17:02:32.363Z,69.08
2022-11-08T17:05:03.210Z,69.59
2022-11-08T17:07:33.270Z,69.29
2022-11-08T17:10:04.168Z,68.90
2022-11-08T17:12:35.082Z,69.10
2022-11-08T17:15:06.382Z,69.86
2022-11-08T17:17:40.032Z,69.49
2022-11-08T17:20:13.713Z,69.24
2022-11-08T17:22:47.731Z,69.38
2022-11-08T17:25:19.769Z,69.54
2022-11-08T17:27:51.675Z,69.61
2022-11-08T17:30:26.680Z,69.66
2022-11-08T17:33:00.630Z,69.64
2022-11-08T17:35:31.518Z,69.79
2022-11-08T17:38:02.385Z,69.90
2022-11-08T17:40:33.547Z,69.84
2022-11-08T17:43:04.452Z,69.75
2022-11-08T17:45:35.445Z,70.28
2022-11-08T17:48:09.128Z,70.08
2022-11-08T17:50:39.270Z,70.08
2022-11-08T17:53:10.271Z,70.08
2022-11-08T17:55:40.202Z,69.88
2022-11-08T17:58:11.682Z,69.83
2022-11-08T18:00:41.880Z,69.88
2022-11-08T18:03:15.974Z,69.84
2022-11-08T18:05:55.891Z,69.25
2022-11-08T18:08:28.143Z,69.72
2022-11-08T18:10:58.426Z,69.98
2022-11-08T18:13:30.157Z,70.22
2022-11-08T18:16:09.080Z,70.44
2022-11-08T18:18:43.384Z,70.68
2022-11-08T18:21:13.791Z,70.77
2022-11-08T18:23:44.769Z,70.79
2022-11-08T18:26:15.737Z,70.64
2022-11-08T18:28:52.354Z,70.69
2022-11-08T18:31:24.473Z,70.87
2022-11-08T18:33:59.516Z,70.88
2022-11-08T18:36:32.660Z,70.82
2022-11-08T18:39:04.239Z,70.81
2022-11-08T18:41:36.674Z,71.22
2022-11-08T18:44:08.345Z,71.39
2022-11-08T18:46:43.132Z,71.01
2022-11-08T18:49:16.469Z,71.18
2022-11-08T18:51:52.014Z,71.32
2022-11-08T18:54:23.884Z,71.49
2022-11-08T18:56:53.941Z,71.42
2022-11-08T18:59:24.905Z,71.40
2022-11-08T19:01:57.007Z,71.58
2022-11-08T19:04:29.582Z,72.14
2022-11-08T19:06:59.610Z,71.96
2022-11-08T19:09:30.804Z,72.21
2022-11-08T19:12:05.890Z,72.26
2022-11-08T19:14:38.132Z,71.97
2022-11-08T19:17:10.761Z,71.88
2022-11-08T19:19:44.472Z,71.83
2022-11-08T19:22:15.314Z,71.89
2022-11-08T19:24:46.500Z,71.61
2022-11-08T19:27:17.648Z,71.78
2022-11-08T19:29:48.511Z,71.68
2022-11-08T19:32:21.053Z,71.92
2022-11-08T19:34:54.741Z,71.89
2022-11-08T19:37:25.744Z,71.79
2022-11-08T19:39:55.973Z,71.97
2022-11-08T19:42:26.046Z,72.09
2022-11-08T19:44:55.998Z,71.72
2022-11-08T19:47:27.063Z,71.98
2022-11-08T19:50:01.726Z,71.54
2022-11-08T19:52:32.761Z,72.15
2022-11-08T19:55:02.726Z,71.80
2022-11-08T19:57:35.061Z,72.13
2022-11-08T20:00:07.057Z,71.99
2022-11-08T20:02:42.575Z,72.22
2022-11-08T20:05:16.028Z,71.86
2022-11-08T20:07:47.896Z,72.13
2022-11-08T20:10:17.998Z,72.64
2022-11-08T20:12:49.078Z,72.33
2022-11-08T20:15:19.084Z,72.30
2022-11-08T20:17:49.125Z,72.65
2022-11-08T20:20:22.054Z,72.16
2022-11-08T20:22:52.116Z,72.58
2022-11-08T20:25:23.146Z,72.54
2022-11-08T20:27:52.979Z,72.46
2022-11-08T20:30:22.985Z,72.25
2022-11-08T20:32:52.971Z,72.33
2022-11-08T20:35:27.607Z,71.80
2022-11-08T20:37:59.313Z,72.48
2022-11-08T20:40:30.115Z,72.46
2022-11-08T20:43:01.166Z,72.35
2022-11-08T20:45:31.183Z,72.18
2022-11-08T20:48:02.565Z,72.54
2022-11-08T20:50:39.177Z,72.60
2022-11-08T20:53:11.260Z,72.52
2022-11-08T20:55:41.165Z,72.27
2022-11-08T20:58:13.250Z,72.62
2022-11-08T21:00:57.874Z,72.81
2022-11-08T21:03:31.054Z,73.02
2022-11-08T21:06:06.364Z,72.83
2022-11-08T21:11:30.149Z,73.12
2022-11-08T21:14:00.358Z,73.67
2022-11-08T21:16:35.419Z,73.59
2022-11-08T21:19:13.476Z,74.00
2022-11-08T21:21:47.391Z,74.16
2022-11-08T21:24:18.327Z,74.26
2022-11-08T21:26:49.357Z,74.46
2022-11-08T21:29:20.166Z,74.30
2022-11-08T21:31:50.909Z,74.72
2022-11-08T21:34:21.741Z,74.64
2022-11-08T21:36:55.204Z,75.18
2022-11-08T21:39:26.040Z,75.20
2022-11-08T21:41:57.057Z,75.49
2022-11-08T21:44:27.904Z,75.40
2022-11-08T21:46:58.701Z,75.64
2022-11-08T21:49:29.559Z,75.74
2022-11-08T21:52:03.674Z,75.54
2022-11-08T21:54:34.534Z,75.91
2022-11-08T21:57:04.327Z,76.22
2022-11-08T21:59:35.111Z,76.16
2022-11-08T22:02:05.950Z,76.51
2022-11-08T22:04:36.886Z,76.40
2022-11-08T22:07:10.355Z,76.56
2022-11-08T22:09:40.130Z,76.57
2022-11-08T22:12:11.782Z,76.65
2022-11-08T22:14:42.717Z,77.06
2022-11-08T22:17:13.317Z,77.12
2022-11-08T22:19:44.086Z,77.01
2022-11-08T22:22:17.790Z,76.98
2022-11-08T22:24:48.639Z,76.92
2022-11-08T22:27:18.749Z,77.04
2022-11-08T22:29:49.573Z,76.81
2022-11-08T22:32:19.319Z,76.63
2022-11-08T22:34:49.169Z,76.35
2022-11-08T22:37:21.757Z,75.73
2022-11-08T22:39:51.533Z,76.05
2022-11-08T22:42:21.311Z,76.10
2022-11-08T22:44:51.013Z,76.12
2022-11-08T22:47:20.771Z,76.26
2022-11-08T22:49:50.525Z,75.97
2022-11-08T22:52:22.857Z,76.12
2022-11-08T22:54:52.600Z,75.96
2022-11-08T22:57:22.392Z,76.00
2022-11-08T22:59:52.128Z,76.52
2022-11-08T23:02:21.938Z,76.56
2022-11-08T23:04:51.703Z,76.33
2022-11-08T23:07:24.044Z,76.42
2022-11-08T23:09:53.829Z,76.66
2022-11-08T23:12:36.051Z,76.35
2022-11-08T23:15:18.439Z,76.64
2022-11-08T23:17:48.193Z,76.66
2022-11-08T23:20:31.016Z,76.72
2022-11-08T23:23:16.061Z,76.84
2022-11-08T23:25:46.038Z,76.63
2022-11-08T23:28:28.253Z,76.56
2022-11-08T23:31:10.460Z,76.50
2022-11-08T23:33:45.352Z,76.03
2022-11-08T23:36:15.912Z,76.33
2022-11-08T23:38:48.365Z,76.17
2022-11-08T23:41:30.620Z,77.08
2022-11-08T23:44:12.829Z,77.14
2022-11-08T23:46:42.843Z,77.39
2022-11-08T23:49:12.573Z,76.91
2022-11-08T23:51:42.368Z,77.64
2022-11-08T23:54:14.882Z,76.99
2022-11-08T23:56:44.870Z,77.59
2022-11-08T23:59:15.632Z,77.94
